Welcome to Northern Hawkes Bay. New Zealand.
PWS Header
      nz Flag



Hit Counter


W3C Valid W3C Valid logo


    Wairoa

Select any of the Stations below to visit their websites.










Historic Data from Weather Underground
Select the location of interest below. Wairoa is the default. Please have patience, this Data is slow to load in.
Northern Hawkes Bay Historical Data
Daily Summary for March 14, 2017 Units:  English    Metric   Both
« Previous Day
Next Day »
Daily Weekly Monthly Yearly Custom
  High: Low: Average:
Temperature: 68.2 °F 56.7 °F 60.6 °F
Dew Point: 59.7 °F 50.5 °F 55.9 °F
Humidity: 99% 69% 85%
Wind Speed: 17.4mph 0mph 6.2mph
Wind Gust: 27.3mph - -
Wind- - WSW
Pressure: 30.2 in 29.9 in -
Precipitation: 0.15 in    
Historical Graphs
 
 
Tabular Data for March 14, 2017
Time Temperature Dew Point Pressure Wind Wind Speed Wind Gust Humidity Rainfall Rate (Hourly) solar
00:03 59.9 °F 59.5 °F 30 in Calm     99% 0 in 0 W/m2
00:08 59.7 °F 59.5 °F 29.9 in Calm     99% 0 in 0 W/m2
00:13 59.5 °F 59.4 °F 30 in Calm     99% 0 in 0 W/m2
00:18 59.4 °F 59.2 °F 30 in Calm     99% 0 in 0 W/m2
00:23 59.4 °F 59.2 °F 29.9 in Calm     99% 0 in 0 W/m2
00:28 59.2 °F 58.8 °F 29.9 in Calm     99% 0 in 0 W/m2
00:33 59.2 °F 58.8 °F 29.9 in Calm     99% 0 in 0 W/m2
00:38 59.2 °F 58.8 °F 29.9 in Calm     99% 0 in 0 W/m2
00:43 59 °F 58.6 °F 29.9 in Calm     99% 0 in 0 W/m2
00:48 59 °F 58.6 °F 29.9 in Calm     99% 0 in 0 W/m2
00:53 58.8 °F 58.6 °F 29.9 in Calm     99% 0 in 0 W/m2
00:58 58.6 °F 58.5 °F 29.9 in Calm     99% 0 in 0 W/m2
01:03 58.5 °F 58.3 °F 29.9 in Calm     99% 0 in 0 W/m2
01:08 58.5 °F 58.3 °F 29.9 in Calm     99% 0 in 0 W/m2
01:13 58.5 °F 58.3 °F 30 in Calm     99% 0 in 0 W/m2
01:18 58.3 °F 57.9 °F 29.9 in Calm     99% 0 in 0 W/m2
01:23 58.3 °F 57.9 °F 29.9 in Calm     99% 0 in 0 W/m2
01:28 58.3 °F 57.9 °F 29.9 in Calm     99% 0 in 0 W/m2
01:33 58.3 °F 57.9 °F 29.9 in Calm     99% 0 in 0 W/m2
01:38 58.3 °F 57.9 °F 29.9 in Calm     99% 0 in 0 W/m2
01:43 58.5 °F 58.3 °F 29.9 in Calm     99% 0 in 0 W/m2
01:48 58.3 °F 57.9 °F 29.9 in Calm     99% 0 in 0 W/m2
01:53 58.3 °F 57.9 °F 29.9 in Calm     99% 0 in 0 W/m2
01:58 58.3 °F 57.9 °F 29.9 in Calm     99% 0 in 0 W/m2
02:03 58.3 °F 57.9 °F 29.9 in Calm     99% 0 in 0 W/m2
02:08 58.3 °F 57.9 °F 29.9 in Calm     99% 0 in 0 W/m2
02:13 58.6 °F 58.5 °F 29.9 in SW 3.8 mph 7.6 mph 99% 0 in 0 W/m2
02:18 59.2 °F 58.8 °F 30 in Calm   8.3 mph 99% 0 in 0 W/m2
02:23 59.4 °F 59.2 °F 29.9 in Calm   8.3 mph 99% 0 in 0 W/m2
02:28 59.5 °F 59.4 °F 29.9 in Calm     99% 0 in 0 W/m2
02:33 59.5 °F 59.4 °F 29.9 in Calm     99% 0 in 0 W/m2
02:38 59.7 °F 59.5 °F 29.9 in Calm     99% 0 in 0 W/m2
02:43 59.7 °F 59.5 °F 29.9 in Calm     99% 0 in 0 W/m2
02:48 59.7 °F 59.2 °F 29.9 in Calm     98% 0 in 0 W/m2
02:53 59.9 °F 59.4 °F 29.9 in Calm     98% 0 in 0 W/m2
02:58 59.7 °F 59.2 °F 29.9 in Calm     98% 0 in 0 W/m2
03:03 59.7 °F 59.2 °F 29.9 in Calm     98% 0 in 0 W/m2
03:08 59.7 °F 59.2 °F 29.9 in Calm     98% 0 in 0 W/m2
03:13 59.7 °F 59.2 °F 29.9 in Calm     98% 0 in 0 W/m2
03:18 59.7 °F 59.2 °F 29.9 in Calm     98% 0 in 0 W/m2
03:23 59.7 °F 59.2 °F 29.9 in Calm     98% 0 in 0 W/m2
03:28 59.7 °F 59.2 °F 29.9 in Calm     98% 0 in 0 W/m2
03:33 59.5 °F 59 °F 29.9 in Calm     98% 0 in 0 W/m2
03:38 59.5 °F 58.6 °F 29.9 in Calm     97% 0 in 0 W/m2
03:43 59.5 °F 58.6 °F 29.9 in Calm     97% 0 in 0 W/m2
03:48 59.5 °F 58.6 °F 29.9 in Calm     97% 0 in 0 W/m2
03:53 59.5 °F 58.6 °F 29.9 in Calm     97% 0 in 0 W/m2
03:58 59.5 °F 58.6 °F 29.9 in Calm     97% 0 in 0 W/m2
04:03 59.5 °F 58.6 °F 29.9 in Calm     97% 0 in 0 W/m2
04:08 59.4 °F 58.3 °F 29.9 in Calm     96% 0 in 0 W/m2
04:13 59.4 °F 58.3 °F 29.9 in Calm     96% 0 in 0 W/m2
04:18 59.4 °F 58.3 °F 29.9 in Calm     96% 0 in 0 W/m2
04:23 59.4 °F 58.3 °F 29.9 in Calm     96% 0.01 in 0 W/m2
04:28 59 °F 57.9 °F 29.9 in Calm     96% 0.02 in 0 W/m2
04:33 58.6 °F 57.6 °F 29.9 in NW 1.6 mph 3.8 mph 96% 0.02 in 0 W/m2
04:38 58.3 °F 57.2 °F 29.9 in NNW 3.1 mph 5.4 mph 96% 0.02 in 0 W/m2
04:43 58.3 °F 57.2 °F 29.9 in NNW 3.1 mph 5.4 mph 96% 0.02 in 0 W/m2
04:48 58.3 °F 57.2 °F 29.9 in NNW 3.1 mph 5.4 mph 96% 0.02 in 0 W/m2
04:53 58.3 °F 57.4 °F 29.9 in NNW 1.6 mph 5.4 mph 97% 0.02 in 0 W/m2
04:58 58.3 °F 57.4 °F 29.9 in Calm   3.8 mph 97% 0.02 in 0 W/m2
05:03 58.3 °F 57.4 °F 29.9 in Calm   2.2 mph 97% 0.02 in 0 W/m2
05:08 58.3 °F 57.4 °F 29.9 in Calm     97% 0.02 in 0 W/m2
05:13 58.5 °F 57.6 °F 29.9 in Calm   0.7 mph 97% 0.02 in 0 W/m2
05:18 58.5 °F 57.6 °F 29.9 in Calm   0.7 mph 97% 0.02 in 0 W/m2
05:23 58.6 °F 57.7 °F 29.9 in Calm     97% 0.01 in 0 W/m2
05:40 58.5 °F 57.6 °F 29.9 in Calm   3.8 mph 97% 0 in 0 W/m2
05:45 58.5 °F 57.6 °F 29.9 in Calm   3.8 mph 97% 0 in 0 W/m2
05:50 58.5 °F 57.6 °F 29.9 in North 0.7 mph 3.8 mph 97% 0 in 0 W/m2
05:55 58.5 °F 57.6 °F 29.9 in NNW 0.7 mph 3.8 mph 97% 0 in 0 W/m2
06:00 58.5 °F 57.6 °F 29.9 in NNW 1.6 mph 3.8 mph 97% 0 in 0 W/m2
06:05 58.3 °F 57.4 °F 29.9 in NNW 0.7 mph 3.8 mph 97% 0 in 0 W/m2
06:10 58.3 °F 57.4 °F 29.9 in NNW 2.2 mph 4.5 mph 97% 0 in 0 W/m2
06:15 58.3 °F 57.4 °F 29.9 in NW 2.2 mph 4.5 mph 97% 0 in 0 W/m2
06:20 57.9 °F 57.4 °F 29.9 in NW 2.2 mph 4.5 mph 98% 0 in 0 W/m2
06:25 57.9 °F 57.4 °F 29.9 in NW 0.7 mph 3.8 mph 98% 0 in 0 W/m2
06:30 57.9 °F 57 °F 29.9 in NNW 3.1 mph 4.5 mph 97% 0 in 0 W/m2
06:35 57.9 °F 57 °F 29.9 in NNW 3.1 mph 5.4 mph 97% 0 in 0 W/m2
06:40 57.9 °F 57 °F 29.9 in NNW 0.7 mph 5.4 mph 97% 0 in 0 W/m2
06:45 57.9 °F 57 °F 29.9 in NNW 0.7 mph 4.5 mph 97% 0 in 0 W/m2
06:51 57.9 °F 56.8 °F 29.9 in NNW 3.1 mph 4.5 mph 96% 0 in 0 W/m2
06:56 57.9 °F 56.8 °F 29.9 in NW 3.8 mph 6 mph 96% 0 in 0 W/m2
07:01 57.9 °F 56.8 °F 29.9 in Calm   6 mph 96% 0 in 0 W/m2
07:06 57.7 °F 56.3 °F 30 in Calm   6 mph 95% 0 in 2 W/m2
07:11 57.7 °F 56.3 °F 30 in Calm   3.1 mph 95% 0 in 4 W/m2
07:16 57.7 °F 56.3 °F 30 in NNW 1.6 mph 5.4 mph 95% 0 in 7 W/m2
07:21 57.6 °F 56.1 °F 30 in Calm   5.4 mph 95% 0 in 10 W/m2
07:26 57.4 °F 55.9 °F 30 in Calm   4.5 mph 95% 0 in 13 W/m2
07:31 57.4 °F 55.9 °F 30 in North 0.7 mph 3.1 mph 95% 0 in 15 W/m2
07:36 57.2 °F 55.8 °F 30 in NNW 2.2 mph 3.8 mph 95% 0 in 17 W/m2
07:41 57.2 °F 55.8 °F 30 in Calm   3.8 mph 95% 0 in 20 W/m2
07:46 57.2 °F 55.8 °F 30 in Calm   3.8 mph 95% 0 in 23 W/m2
07:51 57.2 °F 55.8 °F 30 in Calm   3.8 mph 95% 0 in 35 W/m2
07:56 57.4 °F 55.9 °F 30 in Calm     95% 0 in 154 W/m2
08:01 58.8 °F 57.7 °F 30 in Calm     96% 0 in 169 W/m2
08:06 59.9 °F 58.5 °F 30 in WNW 3.1 mph 4.5 mph 95% 0 in 183 W/m2
08:11 60.4 °F 58.5 °F 30 in NW 3.8 mph 4.5 mph 93% 0 in 187 W/m2
08:16 60.8 °F 56.8 °F 30 in NW 1.6 mph 4.5 mph 87% 0.01 in 197 W/m2
08:21 61.3 °F 56.8 °F 30 in NNW 3.1 mph 6 mph 85% 0.01 in 205 W/m2
08:26 61.7 °F 56.5 °F 30 in NNW 3.8 mph 6 mph 83% 0.01 in 213 W/m2
08:31 61.9 °F 56.7 °F 30 in NNW 3.8 mph 6 mph 83% 0.01 in 180 W/m2
08:36 62.1 °F 56.5 °F 30 in NNW 3.1 mph 6 mph 82% 0.01 in 167 W/m2
08:41 62.1 °F 56.5 °F 30 in NNW 4.5 mph 6 mph 82% 0.01 in 237 W/m2
08:46 62.6 °F 56.7 °F 30 in NNW 3.8 mph 6 mph 81% 0.01 in 247 W/m2
08:51 63 °F 55.9 °F 30 in NNW 4.5 mph 6.9 mph 78% 0.01 in 254 W/m2
08:56 63.1 °F 55.8 °F 30 in NNW 3.8 mph 6.9 mph 77% 0.01 in 261 W/m2
09:01 63.7 °F 55.9 °F 30 in NNW 2.2 mph 6.9 mph 76% 0.01 in 269 W/m2
09:06 64.4 °F 56.3 °F 30 in NNW 0.7 mph 6 mph 75% 0.01 in 280 W/m2
09:11 65.1 °F 56.3 °F 30 in Calm   4.5 mph 73% 0.01 in 309 W/m2
09:16 66.2 °F 56.5 °F 30 in North 1.6 mph 4.5 mph 71% 0 in 223 W/m2
09:21 65.7 °F 56.5 °F 30 in North 1.6 mph 4.5 mph 72% 0 in 281 W/m2
09:26 65.7 °F 57.2 °F 30 in NNW 1.6 mph 4.5 mph 74% 0 in 368 W/m2
09:31 66.6 °F 57.7 °F 30 in NW 3.1 mph 4.5 mph 73% 0 in 198 W/m2
09:36 66.2 °F 57.4 °F 30 in NNW 3.1 mph 5.4 mph 73% 0 in 386 W/m2
09:41 66.9 °F 58.5 °F 30 in NW 3.8 mph 6.9 mph 74% 0 in 401 W/m2
09:46 68 °F 59 °F 30 in WNW 3.1 mph 6.9 mph 73% 0 in 389 W/m2
09:51 68.2 °F 58.8 °F 30 in SW 6 mph 10.7 mph 72% 0 in 283 W/m2
09:56 66.6 °F 57.9 °F 30 in SW 8.3 mph 13 mph 74% 0 in 281 W/m2
10:01 66 °F 58.6 °F 30 in West 5.4 mph 13 mph 77% 0 in 295 W/m2
10:06 66 °F 57.6 °F 30 in WSW 9.8 mph 13 mph 74% 0 in 413 W/m2
10:11 66.4 °F 57.9 °F 30 in SW 4.5 mph 13 mph 74% 0 in 406 W/m2
10:16 66.6 °F 59.2 °F 30 in SSW 8.3 mph 13.6 mph 77% 0 in 109 W/m2
10:21 64.6 °F 59.7 °F 30 in SSW 7.6 mph 13.6 mph 84% 0.01 in 112 W/m2
10:26 62.8 °F 58.5 °F 30 in SSW 6.9 mph 13.6 mph 86% 0.02 in 145 W/m2
10:31 62.4 °F 58.8 °F 30 in SSW 6.9 mph 13 mph 88% 0.02 in 200 W/m2
10:36 62.6 °F 59.4 °F 30 in SSW 13 mph 17.4 mph 89% 0.02 in 371 W/m2
10:41 62.8 °F 59.7 °F 30 in SSW 11.4 mph 17.4 mph 90% 0.02 in 564 W/m2
10:42 63 °F 59.7 °F 30 in SSW 7.6 mph 17.4 mph 89% 0.02 in 417 W/m2
10:47 63.1 °F 59.5 °F 30 in SSW 6 mph 17.4 mph 88% 0.02 in 317 W/m2
10:52 63.1 °F 59.5 °F 30 in SSW 13 mph 18.3 mph 88% 0.02 in 326 W/m2
10:57 62.8 °F 59.5 °F 30 in SSW 9.2 mph 18.3 mph 89% 0.02 in 315 W/m2
11:02 62.4 °F 59.5 °F 30 in SSW 8.3 mph 18.3 mph 90% 0.02 in 171 W/m2
11:07 61.9 °F 59.2 °F 30 in SSW 7.6 mph 13 mph 91% 0.02 in 278 W/m2
11:12 61.9 °F 59.5 °F 30 in SSW 9.8 mph 13.6 mph 92% 0.02 in 339 W/m2
11:17 61.7 °F 59.4 °F 30 in SSW 4.5 mph 15.2 mph 92% 0.02 in 306 W/m2
11:22 61.7 °F 59.7 °F 30 in SSW 14.5 mph 18.3 mph 93% 0 in 162 W/m2
11:27 60.4 °F 58.5 °F 30 in SW 9.2 mph 19.7 mph 93% 0.01 in 151 W/m2
11:32 60.1 °F 58.5 °F 30 in SSW 9.8 mph 19.7 mph 94% 0.02 in 188 W/m2
11:37 59.9 °F 58.5 °F 30 in SW 10.7 mph 19 mph 95% 0.02 in 154 W/m2
11:42 59.7 °F 58.3 °F 30 in SW 9.2 mph 19 mph 95% 0.02 in 100 W/m2
11:47 59.7 °F 57.9 °F 30 in SSW 6 mph 19 mph 94% 0.02 in 193 W/m2
11:52 60.1 °F 58.5 °F 30 in SW 9.2 mph 17.4 mph 94% 0.02 in 276 W/m2
11:57 60.3 °F 58.5 °F 30 in SSW 12.1 mph 16.8 mph 94% 0.02 in 104 W/m2
12:02 59.2 °F 57.6 °F 30 in SW 10.7 mph 21.3 mph 94% 0.05 in 223 W/m2
12:07 59 °F 57.4 °F 30 in SW 8.3 mph 21.3 mph 94% 0.05 in 309 W/m2
12:12 59.5 °F 58.1 °F 30 in SSW 6.9 mph 15.2 mph 95% 0.06 in 380 W/m2
12:17 59.9 °F 58.5 °F 30 in SSW 7.6 mph 13 mph 95% 0.06 in 457 W/m2
12:22 61 °F 59 °F 30 in SSW 9.8 mph 12.1 mph 93% 0.06 in 417 W/m2
12:41 61.7 °F 57.6 °F 30 in SSW 10.7 mph 15.9 mph 86% 0.04 in 320 W/m2
12:46 61.9 °F 57 °F 30 in SW 7.6 mph 15.9 mph 84% 0.04 in 237 W/m2
12:51 61.9 °F 57 °F 30 in SW 9.2 mph 15.9 mph 84% 0.04 in 249 W/m2
12:56 61.9 °F 56.7 °F 30 in SSW 8.3 mph 15.2 mph 83% 0.04 in 256 W/m2
13:02 62.2 °F 57 °F 30 in SW 8.3 mph 15.2 mph 83% 0.01 in 235 W/m2
13:07 62.1 °F 56.5 °F 30 in SW 8.3 mph 18.3 mph 82% 0.01 in 238 W/m2
13:12 62.2 °F 57 °F 30 in SSW 11.4 mph 18.3 mph 83% 0 in 230 W/m2
13:17 62.2 °F 57 °F 30 in SSW 10.7 mph 15.2 mph 83% 0 in 191 W/m2
13:22 62.1 °F 56.5 °F 30 in SSW 13 mph 17.4 mph 82% 0 in 188 W/m2
13:27 61.9 °F 55.9 °F 30 in SSW 7.6 mph 17.4 mph 81% 0 in 130 W/m2
13:32 61.9 °F 56.3 °F 30 in SSW 9.2 mph 16.8 mph 82% 0 in 240 W/m2
13:37 62.1 °F 55.8 °F 30 in SW 9.2 mph 16.8 mph 80% 0 in 276 W/m2
13:42 62.2 °F 55 °F 30 in SSW 9.8 mph 18.3 mph 77% 0 in 281 W/m2
13:47 62.6 °F 54.1 °F 30 in SSW 9.2 mph 21.3 mph 74% 0 in 334 W/m2
13:52 63.1 °F 54.3 °F 30 in SSW 7.6 mph 21.3 mph 73% 0 in 281 W/m2
13:57 63.3 °F 54.5 °F 30 in SSW 6.9 mph 17.4 mph 73% 0 in 299 W/m2
14:02 63.3 °F 54.1 °F 30 in SSW 7.6 mph 18.3 mph 72% 0 in 240 W/m2
14:07 63.1 °F 53.6 °F 30 in SSW 9.8 mph 18.3 mph 71% 0 in 252 W/m2
14:12 63 °F 53.4 °F 30.1 in SSW 9.8 mph 16.8 mph 71% 0 in 293 W/m2
14:17 63 °F 53.4 °F 30 in South 10.7 mph 19 mph 71% 0 in 182 W/m2
14:22 62.8 °F 53.6 °F 30 in South 12.1 mph 19 mph 72% 0 in 133 W/m2
14:27 62.6 °F 53.4 °F 30 in SSW 10.7 mph 15.9 mph 72% 0 in 163 W/m2
14:32 62.8 °F 53.2 °F 30 in SSW 10.7 mph 18.3 mph 71% 0 in 179 W/m2
14:37 62.8 °F 53.6 °F 30 in SSW 7.6 mph 18.3 mph 72% 0 in 213 W/m2
14:42 63 °F 53.4 °F 30 in South 9.2 mph 15.2 mph 71% 0 in 198 W/m2
14:47 63 °F 53.1 °F 30 in South 12.1 mph 15.2 mph 70% 0 in 266 W/m2
14:52 63.3 °F 53.8 °F 30 in SSW 8.3 mph 15.2 mph 71% 0 in 295 W/m2
14:57 63.5 °F 53.2 °F 30 in SSW 10.7 mph 17.4 mph 69% 0 in 301 W/m2
15:17 63.5 °F 53.6 °F 30 in South 7.6 mph 15.9 mph 70% 0 in 201 W/m2
15:22 63.5 °F 54 °F 30 in SSW 9.2 mph 15.9 mph 71% 0 in 166 W/m2
15:27 63.3 °F 54.1 °F 30 in SSW 9.2 mph 14.5 mph 72% 0 in 161 W/m2
15:32 63.3 °F 53.8 °F 30 in SSW 9.2 mph 16.8 mph 71% 0 in 161 W/m2
15:37 63.3 °F 54.1 °F 30 in SW 9.2 mph 16.8 mph 72% 0 in 218 W/m2
15:42 63.3 °F 54.1 °F 30 in SSW 9.8 mph 14.5 mph 72% 0 in 195 W/m2
15:47 63.3 °F 53.8 °F 30 in South 9.8 mph 16.8 mph 71% 0 in 123 W/m2
15:52 63 °F 53.8 °F 30 in South 10.7 mph 16.8 mph 72% 0 in 114 W/m2
15:57 62.8 °F 53.2 °F 30 in South 10.7 mph 17.4 mph 71% 0 in 182 W/m2
16:02 63 °F 53.4 °F 30 in South 9.2 mph 17.4 mph 71% 0 in 180 W/m2
16:07 63.1 °F 53.6 °F 30 in South 6 mph 15.9 mph 71% 0 in 159 W/m2
16:12 63.1 °F 53.6 °F 30 in SSW 9.8 mph 15.9 mph 71% 0 in 197 W/m2
16:17 63.1 °F 54 °F 30 in South 7.6 mph 15.9 mph 72% 0 in 177 W/m2
16:22 63.3 °F 53.8 °F 30 in South 8.3 mph 15.9 mph 71% 0 in 163 W/m2
16:27 63.1 °F 54 °F 30 in SSW 8.3 mph 15.2 mph 72% 0 in 169 W/m2
16:32 63.1 °F 54.3 °F 30 in SSW 9.8 mph 15.2 mph 73% 0 in 182 W/m2
16:37 63.3 °F 54.1 °F 30 in SSW 9.2 mph 13.6 mph 72% 0 in 188 W/m2
16:42 63.3 °F 54.1 °F 30 in SSW 8.3 mph 13.6 mph 72% 0 in 155 W/m2
16:47 63.1 °F 54 °F 30 in SSW 6.9 mph 16.8 mph 72% 0 in 93 W/m2
16:52 62.8 °F 54 °F 30 in SSW 8.3 mph 16.8 mph 73% 0 in 80 W/m2
16:57 62.4 °F 53.8 °F 30 in SW 7.6 mph 14.5 mph 73% 0 in 121 W/m2
17:02 62.4 °F 54 °F 30 in SW 6 mph 13 mph 74% 0 in 118 W/m2
17:07 62.4 °F 54.9 °F 30 in SW 9.8 mph 14.5 mph 76% 0 in 110 W/m2
17:12 62.2 °F 55 °F 30 in SW 6.9 mph 14.5 mph 77% 0 in 113 W/m2
17:17 62.8 °F 54.3 °F 30 in SW 7.6 mph 14.5 mph 74% 0 in 116 W/m2
17:22 62.1 °F 53.2 °F 30 in SW 7.6 mph 13 mph 73% 0 in 119 W/m2
17:27 62.1 °F 52.9 °F 30 in SW 6.9 mph 13.6 mph 72% 0 in 121 W/m2
17:32 62.1 °F 53.2 °F 30 in SW 5.4 mph 14.5 mph 73% 0 in 99 W/m2
17:37 62.1 °F 53.2 °F 30 in SW 5.4 mph 14.5 mph 73% 0 in 80 W/m2
17:42 62.1 °F 53.2 °F 30 in SW 7.6 mph 13 mph 73% 0 in 75 W/m2
17:47 62.1 °F 53.8 °F 30 in WSW 4.5 mph 13 mph 74% 0 in 95 W/m2
17:52 63.1 °F 54.7 °F 30 in WSW 6 mph 10.7 mph 74% 0 in 72 W/m2
17:57 62.6 °F 53.8 °F 30 in SW 5.4 mph 12.1 mph 73% 0 in 76 W/m2
18:02 62.6 °F 53.4 °F 30 in SSW 6.9 mph 12.1 mph 72% 0 in 97 W/m2
18:07 62.8 °F 53.6 °F 30 in SW 6 mph 11.4 mph 72% 0 in 129 W/m2
18:12 63.5 °F 54.7 °F 30 in SW 3.1 mph 12.1 mph 73% 0 in 113 W/m2
18:17 63.1 °F 54 °F 30 in SW 8.3 mph 13.6 mph 72% 0 in 36 W/m2
18:22 62.2 °F 55.2 °F 30 in SSW 15.9 mph 23.5 mph 78% 0 in 15 W/m2
18:27 59.9 °F 55.8 °F 30.1 in SSW 11.4 mph 27.3 mph 86% 0 in 22 W/m2
18:32 59.7 °F 56.1 °F 30 in SSW 16.8 mph 27.3 mph 88% 0 in 34 W/m2
18:37 59 °F 55.8 °F 30.1 in South 13 mph 22.8 mph 89% 0 in 20 W/m2
18:42 58.8 °F 55.9 °F 30.1 in SSW 9.2 mph 22.8 mph 90% 0 in 19 W/m2
18:47 58.5 °F 55.9 °F 30.1 in SSW 5.4 mph 22.8 mph 91% 0.02 in 11 W/m2
18:52 59.2 °F 56.3 °F 30.1 in SSW 13.6 mph 19.7 mph 90% 0.02 in 13 W/m2
18:57 59.2 °F 55.2 °F 30 in SSW 13 mph 19.7 mph 87% 0.02 in 8 W/m2
19:02 59.5 °F 55 °F 30 in SSW 13.6 mph 19.7 mph 85% 0.02 in 8 W/m2
19:07 59.9 °F 54.7 °F 30 in SSW 12.1 mph 21.3 mph 83% 0.02 in 3 W/m2
19:23 60.6 °F 55 °F 30.1 in South 8.3 mph 23.5 mph 82% 0.02 in 1 W/m2
19:28 61.5 °F 55.2 °F 30.1 in SSW 10.7 mph 22.8 mph 80% 0.02 in 0 W/m2
19:33 60.6 °F 55 °F 30.1 in SW 13.6 mph 22.1 mph 82% 0.02 in 0 W/m2
19:38 60.6 °F 54.3 °F 30.1 in SSW 15.2 mph 21.3 mph 80% 0.02 in 0 W/m2
19:43 60.6 °F 54.3 °F 30.1 in SSW 8.3 mph 21.3 mph 80% 0.01 in 0 W/m2
19:48 60.3 °F 53.8 °F 30.1 in SW 14.5 mph 19.7 mph 79% 0 in 0 W/m2
19:53 60.6 °F 54.1 °F 30.1 in SSW 9.8 mph 19.7 mph 79% 0 in 0 W/m2
19:58 60.6 °F 54.3 °F 30.1 in SSW 11.4 mph 19.7 mph 80% 0 in 0 W/m2
20:03 60.6 °F 53.8 °F 30.1 in SSW 13 mph 21.3 mph 78% 0 in 0 W/m2
20:23 60.4 °F 53.6 °F 30.1 in SSW 13.6 mph 19 mph 78% 0 in 0 W/m2
20:28 60.1 °F 53.6 °F 30.1 in SSW 9.2 mph 19 mph 79% 0 in 0 W/m2
20:33 60.6 °F 53.4 °F 30.1 in SSW 10.7 mph 22.8 mph 77% 0 in 0 W/m2
20:38 60.8 °F 53.2 °F 30.1 in SW 14.5 mph 22.8 mph 76% 0 in 0 W/m2
20:43 60.6 °F 52.3 °F 30.1 in SW 9.8 mph 19.7 mph 74% 0 in 0 W/m2
20:48 59.9 °F 51.6 °F 30.1 in SW 12.1 mph 20.6 mph 74% 0 in 0 W/m2
20:53 60.4 °F 51.8 °F 30.1 in SW 15.9 mph 20.6 mph 73% 0 in 0 W/m2
20:58 60.4 °F 51.8 °F 30.1 in SW 16.8 mph 25.1 mph 73% 0 in 0 W/m2
21:03 60.4 °F 51.8 °F 30.1 in SW 14.5 mph 25.1 mph 73% 0 in 0 W/m2
21:08 61.2 °F 52.2 °F 30.1 in SW 6.9 mph 22.8 mph 72% 0 in 0 W/m2
21:13 60.4 °F 51.8 °F 30.1 in SW 9.8 mph 22.1 mph 73% 0 in 0 W/m2
21:18 60.3 °F 51.6 °F 30.1 in SSW 14.5 mph 24.4 mph 73% 0 in 0 W/m2
21:23 60.3 °F 51.6 °F 30.1 in SW 13 mph 24.4 mph 73% 0 in 0 W/m2
21:28 60.1 °F 51.4 °F 30.1 in SW 14.5 mph 24.4 mph 73% 0 in 0 W/m2
21:33 60.1 °F 51.4 °F 30.1 in SW 13.6 mph 22.8 mph 73% 0 in 0 W/m2
21:38 60.1 °F 51.8 °F 30.1 in SW 9.8 mph 20.6 mph 74% 0 in 0 W/m2
21:43 60.1 °F 51.8 °F 30.1 in SW 12.1 mph 19 mph 74% 0 in 0 W/m2
21:48 59.2 °F 50.5 °F 30.1 in SW 17.4 mph 22.8 mph 73% 0 in 0 W/m2
21:53 59.7 °F 51.4 °F 30.1 in SW 7.6 mph 22.8 mph 74% 0 in 0 W/m2
21:58 59.7 °F 51.4 °F 30.1 in SW 13.6 mph 22.8 mph 74% 0 in 0 W/m2
22:03 59.5 °F 51.3 °F 30.1 in SW 11.4 mph 22.1 mph 74% 0 in 0 W/m2
22:08 59.5 °F 51.3 °F 30.1 in WSW 11.4 mph 24.4 mph 74% 0 in 0 W/m2
22:13 59.5 °F 51.3 °F 30.1 in WSW 10.7 mph 24.4 mph 74% 0 in 0 W/m2
22:18 59.4 °F 50.7 °F 30.1 in WSW 9.8 mph 21.3 mph 73% 0 in 0 W/m2
22:23 59.4 °F 50.7 °F 30.1 in SW 15.2 mph 21.3 mph 73% 0 in 0 W/m2
22:28 59.5 °F 50.9 °F 30.1 in WSW 14.5 mph 22.8 mph 73% 0 in 0 W/m2
22:47 58.1 °F 50.5 °F 30.1 in WSW 7.6 mph 19.7 mph 76% 0 in 0 W/m2
22:53 58.1 °F 50.9 °F 30.2 in SW 13.6 mph 21.3 mph 77% 0 in 0 W/m2
22:58 58.6 °F 51.1 °F 30.1 in SW 17.4 mph 24.4 mph 76% 0 in 0 W/m2
23:03 58.5 °F 50.5 °F 30.2 in SW 14.5 mph 24.4 mph 75% 0 in 0 W/m2
23:08 58.3 °F 50.7 °F 30.2 in SW 7.6 mph 21.3 mph 76% 0 in 0 W/m2
23:13 58.1 °F 50.9 °F 30.1 in SW 13 mph 20.6 mph 77% 0 in 0 W/m2
23:18 57.7 °F 51.3 °F 30.1 in SW 15.9 mph 21.3 mph 79% 0 in 0 W/m2
23:23 57.9 °F 51.4 °F 30.2 in SW 13 mph 21.3 mph 79% 0 in 0 W/m2
23:28 57.7 °F 52 °F 30.2 in SW 12.1 mph 19.7 mph 81% 0 in 0 W/m2
23:33 57.4 °F 51.6 °F 30.1 in WSW 9.2 mph 19.7 mph 81% 0 in 0 W/m2
23:38 57.6 °F 51.1 °F 30.2 in WSW 14.5 mph 22.1 mph 79% 0.01 in 0 W/m2
23:43 57.9 °F 51.1 °F 30.2 in WSW 12.1 mph 25.9 mph 78% 0.01 in 0 W/m2
23:48 57.7 °F 51.3 °F 30.2 in SW 12.1 mph 25.9 mph 79% 0.01 in 0 W/m2
23:53 57.2 °F 51.8 °F 30.2 in SW 16.8 mph 24.4 mph 82% 0.01 in 0 W/m2
23:58 56.7 °F 52 °F 30.2 in WSW 10.7 mph 24.4 mph 84% 0.01 in 0 W/m2
Northern Hawkes Bay. New Zealand Historic Data
Compliments of Weather Underground - 2.25 mb